Time;durP1;ratioP1;P1;durP2;ratioP2;P2;SDS_P1;SDS_P2;PMS_P1;PMS_P2;Temp;Humidity;BMP_temperature;BMP_pressure;BME280_temperature;BME280_humidity;BME280_pressure;Samples;Min_cycle;Max_cycle;Signal;HPM_P1;HPM_P2
2022/11/15 00:00:21;;;;;;;66.37;38.93;;;;;;;;;;737560;191;816143;-69
2022/11/15 00:02:46;;;;;;;59.50;34.53;;;;;;;;;;722625;190;918879;-69
2022/11/15 00:05:12;;;;;;;49.03;30.80;;;;;;;;;;733261;188;814357;-68
2022/11/15 00:07:38;;;;;;;57.30;31.77;;;;;;;;;;724668;191;920338;-69
2022/11/15 00:10:04;;;;;;;57.63;32.80;;;;;;;;;;722802;193;919182;-69
2022/11/15 00:12:30;;;;;;;51.13;31.77;;;;;;;;;;722237;190;934370;-70
2022/11/15 00:14:56;;;;;;;53.13;31.30;;;;;;;;;;733065;188;816378;-69
2022/11/15 00:17:22;;;;;;;65.97;34.22;;;;;;;;;;735738;190;918868;-69
2022/11/15 00:19:47;;;;;;;51.83;32.73;;;;;;;;;;710074;195;917504;-69
2022/11/15 00:22:13;;;;;;;50.30;32.13;;;;;;;;;;728834;191;816681;-69
2022/11/15 00:24:39;;;;;;;54.73;31.97;;;;;;;;;;739881;191;796309;-69
2022/11/15 00:27:05;;;;;;;52.97;31.53;;;;;;;;;;734955;190;918527;-68
2022/11/15 00:29:31;;;;;;;54.67;28.70;;;;;;;;;;729912;190;919214;-69
2022/11/15 00:31:57;;;;;;;48.67;29.13;;;;;;;;;;741043;190;815885;-69
2022/11/15 00:34:22;;;;;;;49.38;31.60;;;;;;;;;;737888;189;918153;-68
2022/11/15 00:36:48;;;;;;;54.60;30.57;;;;;;;;;;728321;190;917506;-68
2022/11/15 00:39:14;;;;;;;51.67;29.13;;;;;;;;;;730510;188;919172;-69
2022/11/15 00:41:40;;;;;;;61.77;31.07;;;;;;;;;;730787;191;633219;-68
2022/11/15 00:44:06;;;;;;;61.27;34.33;;;;;;;;;;732491;189;817873;-69
2022/11/15 00:46:32;;;;;;;43.87;26.90;;;;;;;;;;728704;191;918797;-69
2022/11/15 00:48:58;;;;;;;38.93;25.33;;;;;;;;;;740345;188;919263;-68
2022/11/15 00:51:23;;;;;;;32.83;23.50;;;;;;;;;;734233;190;1020563;-68
2022/11/15 00:53:49;;;;;;;47.13;25.47;;;;;;;;;;736073;191;819396;-69
2022/11/15 00:56:15;;;;;;;39.27;24.07;;;;;;;;;;732029;191;816926;-68
2022/11/15 00:58:41;;;;;;;44.63;25.95;;;;;;;;;;731616;187;817028;-68
2022/11/15 01:01:09;;;;;;;57.90;27.60;;;;;;;;;;734684;191;918842;-68
2022/11/15 01:03:35;;;;;;;45.43;26.57;;;;;;;;;;737241;189;918636;-69
2022/11/15 01:06:01;;;;;;;41.60;25.77;;;;;;;;;;734571;191;816364;-68
2022/11/15 01:08:27;;;;;;;39.80;23.70;;;;;;;;;;734965;190;919866;-68
2022/11/15 01:10:53;;;;;;;41.07;22.60;;;;;;;;;;732440;190;919314;-69
2022/11/15 01:13:19;;;;;;;43.83;22.40;;;;;;;;;;730738;191;929463;-69
2022/11/15 01:15:44;;;;;;;33.83;20.10;;;;;;;;;;725692;193;816243;-68
2022/11/15 01:18:10;;;;;;;35.73;20.33;;;;;;;;;;722452;190;918574;-68
2022/11/15 01:20:39;;;;;;;33.35;20.30;;;;;;;;;;738649;190;943595;-68
2022/11/15 01:23:05;;;;;;;33.17;20.13;;;;;;;;;;732516;190;936464;-68
2022/11/15 01:25:31;;;;;;;33.67;20.30;;;;;;;;;;736143;191;919345;-68
2022/11/15 01:27:56;;;;;;;31.47;19.40;;;;;;;;;;734742;188;918167;-68
2022/11/15 01:30:22;;;;;;;36.57;20.20;;;;;;;;;;738185;191;919212;-66
2022/11/15 01:32:48;;;;;;;32.50;20.20;;;;;;;;;;733789;191;919413;-68
2022/11/15 01:35:14;;;;;;;26.90;19.23;;;;;;;;;;723616;191;919112;-69
2022/11/15 01:37:40;;;;;;;30.60;19.53;;;;;;;;;;728483;191;918250;-70
2022/11/15 01:40:06;;;;;;;34.07;20.93;;;;;;;;;;733843;188;919200;-68
2022/11/15 01:42:32;;;;;;;34.07;19.07;;;;;;;;;;737313;190;919922;-68
2022/11/15 01:44:58;;;;;;;33.93;18.47;;;;;;;;;;725427;191;919177;-68
2022/11/15 01:47:24;;;;;;;30.37;19.67;;;;;;;;;;722363;191;919094;-68
2022/11/15 01:49:49;;;;;;;34.58;18.52;;;;;;;;;;718898;191;919449;-68
2022/11/15 01:52:15;;;;;;;27.20;17.93;;;;;;;;;;723801;193;919308;-69
2022/11/15 01:54:41;;;;;;;31.40;18.87;;;;;;;;;;716308;192;919098;-68
2022/11/15 01:57:07;;;;;;;33.03;18.00;;;;;;;;;;719012;192;918750;-68
2022/11/15 01:59:33;;;;;;;28.43;18.73;;;;;;;;;;728813;187;1044067;-68
2022/11/15 02:01:59;;;;;;;27.00;17.50;;;;;;;;;;743753;190;918713;-68
2022/11/15 02:04:26;;;;;;;28.63;17.30;;;;;;;;;;734403;188;918647;-68
2022/11/15 02:06:52;;;;;;;26.50;17.90;;;;;;;;;;733248;191;918691;-68
2022/11/15 02:09:18;;;;;;;32.90;18.93;;;;;;;;;;731988;191;919219;-68
2022/11/15 02:11:44;;;;;;;31.07;18.40;;;;;;;;;;722301;194;919274;-68
2022/11/15 02:14:09;;;;;;;29.27;17.80;;;;;;;;;;728191;188;919744;-67
2022/11/15 02:16:43;;;;;;;31.67;20.17;;;;;;;;;;732960;190;1020627;-68
2022/11/15 02:19:28;;;;;;;23.90;16.93;;;;;;;;;;733718;189;920312;-68
2022/11/15 02:21:55;;;;;;;31.60;17.33;;;;;;;;;;731127;192;915620;-69
2022/11/15 02:24:37;;;;;;;31.50;17.05;;;;;;;;;;735758;191;818703;-69
2022/11/15 02:27:22;;;;;;;32.47;17.50;;;;;;;;;;734748;190;919432;-69
2022/11/15 02:29:48;;;;;;;28.27;15.53;;;;;;;;;;734533;191;933471;-69
2022/11/15 02:32:18;;;;;;;20.73;14.20;;;;;;;;;;737918;191;912414;-68
2022/11/15 02:34:47;;;;;;;27.13;16.17;;;;;;;;;;738369;188;809903;-69
2022/11/15 02:37:15;;;;;;;26.90;15.37;;;;;;;;;;740577;190;710138;-69
2022/11/15 02:39:56;;;;;;;21.77;14.43;;;;;;;;;;734722;189;911310;-68
2022/11/15 02:44:56;;;;;;;23.90;14.00;;;;;;;;;;731856;190;919326;-68
2022/11/15 02:47:21;;;;;;;21.33;13.47;;;;;;;;;;730529;191;920818;-68
2022/11/15 02:49:47;;;;;;;23.53;14.80;;;;;;;;;;730060;189;919288;-68
2022/11/15 02:52:15;;;;;;;23.00;15.63;;;;;;;;;;728603;191;919402;-68
2022/11/15 02:54:41;;;;;;;23.40;14.17;;;;;;;;;;732792;191;919551;-68
2022/11/15 02:57:07;;;;;;;19.50;12.87;;;;;;;;;;739350;191;913464;-68
2022/11/15 02:59:35;;;;;;;25.77;15.20;;;;;;;;;;733296;188;917540;-68
2022/11/15 03:02:11;;;;;;;22.30;14.37;;;;;;;;;;733220;191;919007;-69
2022/11/15 03:04:38;;;;;;;25.53;14.00;;;;;;;;;;727505;191;919476;-69
2022/11/15 03:07:14;;;;;;;20.65;13.30;;;;;;;;;;724546;192;1020396;-68
2022/11/15 03:09:46;;;;;;;26.43;14.63;;;;;;;;;;743963;189;916333;-68
2022/11/15 03:12:11;;;;;;;24.10;15.00;;;;;;;;;;741940;190;913777;-68
2022/11/15 03:14:38;;;;;;;25.97;14.53;;;;;;;;;;733770;191;919514;-68
2022/11/15 03:17:19;;;;;;;20.50;13.33;;;;;;;;;;736455;190;919953;-69
2022/11/15 03:19:45;;;;;;;21.47;14.20;;;;;;;;;;726164;187;918705;-69
2022/11/15 03:22:11;;;;;;;25.33;14.82;;;;;;;;;;724902;192;915344;-68
2022/11/15 03:24:37;;;;;;;22.30;13.50;;;;;;;;;;726112;191;916349;-69
2022/11/15 03:27:03;;;;;;;21.13;13.40;;;;;;;;;;738287;191;915355;-69
2022/11/15 03:29:29;;;;;;;19.60;13.60;;;;;;;;;;733023;191;919457;-69
2022/11/15 03:31:55;;;;;;;26.73;15.33;;;;;;;;;;724456;193;918580;-69
2022/11/15 03:34:36;;;;;;;21.58;13.95;;;;;;;;;;728553;190;918641;-68
2022/11/15 03:37:02;;;;;;;21.67;14.77;;;;;;;;;;735926;190;918856;-68
2022/11/15 03:39:28;;;;;;;18.27;12.90;;;;;;;;;;737230;191;929333;-68
2022/11/15 03:41:54;;;;;;;22.93;13.50;;;;;;;;;;707845;198;918984;-68
2022/11/15 03:44:21;;;;;;;20.12;12.95;;;;;;;;;;722462;193;974147;-68
2022/11/15 03:46:47;;;;;;;23.60;14.53;;;;;;;;;;738538;190;919006;-68
2022/11/15 03:49:13;;;;;;;17.70;13.33;;;;;;;;;;739720;187;918912;-68
2022/11/15 03:51:38;;;;;;;19.37;13.00;;;;;;;;;;725102;193;918711;-68
2022/11/15 03:54:04;;;;;;;23.20;13.43;;;;;;;;;;721924;193;919536;-68
2022/11/15 03:56:30;;;;;;;22.67;13.00;;;;;;;;;;733047;193;917803;-69
2022/11/15 03:58:56;;;;;;;20.70;13.67;;;;;;;;;;726019;190;1021389;-68
2022/11/15 04:01:22;;;;;;;19.37;13.47;;;;;;;;;;735531;190;919515;-68
2022/11/15 04:03:48;;;;;;;22.93;12.37;;;;;;;;;;738203;191;916434;-68
2022/11/15 04:06:14;;;;;;;21.20;13.50;;;;;;;;;;736379;189;918849;-68
2022/11/15 04:08:39;;;;;;;17.80;11.60;;;;;;;;;;726102;188;930744;-68
2022/11/15 04:11:05;;;;;;;21.93;13.43;;;;;;;;;;731035;190;918910;-68
2022/11/15 04:13:31;;;;;;;21.40;13.87;;;;;;;;;;740243;186;918658;-68
2022/11/15 04:15:57;;;;;;;18.23;11.40;;;;;;;;;;733016;190;919186;-68
2022/11/15 04:18:24;;;;;;;18.37;12.90;;;;;;;;;;729872;190;919140;-68
2022/11/15 04:25:52;;;;;;;17.95;11.65;;;;;;;;;;733507;190;918690;-68
2022/11/15 04:28:18;;;;;;;22.80;13.90;;;;;;;;;;728984;191;1021924;-68
2022/11/15 04:30:44;;;;;;;20.37;12.43;;;;;;;;;;736071;190;918896;-68
2022/11/15 04:33:10;;;;;;;20.70;12.70;;;;;;;;;;732412;188;919059;-68
2022/11/15 04:35:35;;;;;;;16.73;11.53;;;;;;;;;;733092;190;919110;-68
2022/11/15 04:38:01;;;;;;;24.90;14.40;;;;;;;;;;733557;190;918925;-68
2022/11/15 04:40:27;;;;;;;17.23;11.63;;;;;;;;;;729381;189;919147;-68
2022/11/15 04:42:53;;;;;;;22.45;13.55;;;;;;;;;;733796;189;919436;-68
2022/11/15 04:45:19;;;;;;;23.02;16.48;;;;;;;;;;732213;191;918987;-68
2022/11/15 04:47:45;;;;;;;21.10;13.90;;;;;;;;;;705625;198;919642;-68
2022/11/15 04:50:13;;;;;;;21.85;13.93;;;;;;;;;;726539;191;919605;-68
2022/11/15 04:52:36;;;;;;;20.73;13.73;;;;;;;;;;723380;193;920682;-68
2022/11/15 04:55:02;;;;;;;23.33;14.40;;;;;;;;;;728408;191;936520;-68
2022/11/15 04:57:28;;;;;;;22.98;14.52;;;;;;;;;;730494;191;919096;-68
2022/11/15 04:59:54;;;;;;;25.37;15.43;;;;;;;;;;725564;191;919043;-68
2022/11/15 05:02:20;;;;;;;22.10;14.03;;;;;;;;;;735557;190;914923;-68
2022/11/15 05:04:46;;;;;;;30.43;14.80;;;;;;;;;;734554;187;919349;-68
2022/11/15 05:07:12;;;;;;;23.67;14.87;;;;;;;;;;735040;190;919285;-68
2022/11/15 05:09:38;;;;;;;19.83;13.83;;;;;;;;;;733109;187;920135;-68
2022/11/15 05:12:04;;;;;;;21.70;13.17;;;;;;;;;;732346;190;919271;-68
2022/11/15 05:14:30;;;;;;;22.30;14.37;;;;;;;;;;732820;190;919617;-68
2022/11/15 05:16:56;;;;;;;22.97;14.47;;;;;;;;;;732055;190;919031;-68
2022/11/15 05:19:22;;;;;;;30.20;17.17;;;;;;;;;;736689;190;916678;-68
2022/11/15 05:21:48;;;;;;;30.77;17.50;;;;;;;;;;729350;191;919363;-68
2022/11/15 05:24:14;;;;;;;33.33;17.60;;;;;;;;;;734098;188;919255;-68
2022/11/15 05:26:40;;;;;;;26.87;15.90;;;;;;;;;;727619;194;918622;-68
2022/11/15 05:29:06;;;;;;;29.13;17.07;;;;;;;;;;726507;190;919240;-68
2022/11/15 05:31:32;;;;;;;29.70;16.50;;;;;;;;;;728044;190;920361;-68
2022/11/15 05:33:57;;;;;;;34.17;16.87;;;;;;;;;;738171;188;918596;-67
2022/11/15 05:36:25;;;;;;;27.10;16.80;;;;;;;;;;736755;191;917299;-68
2022/11/15 05:38:51;;;;;;;31.20;16.80;;;;;;;;;;729136;191;917665;-68
2022/11/15 05:41:17;;;;;;;26.27;16.17;;;;;;;;;;734765;191;681949;-69
2022/11/15 05:43:43;;;;;;;27.83;17.53;;;;;;;;;;729938;191;623941;-67
2022/11/15 05:46:08;;;;;;;27.13;16.27;;;;;;;;;;731927;191;919029;-67
2022/11/15 05:48:34;;;;;;;27.90;16.93;;;;;;;;;;735743;191;922477;-68
2022/11/15 05:51:00;;;;;;;26.63;17.07;;;;;;;;;;741952;191;918852;-68
2022/11/15 05:53:26;;;;;;;33.10;16.87;;;;;;;;;;734063;191;1021343;-67
2022/11/15 05:55:52;;;;;;;32.20;19.00;;;;;;;;;;739749;191;637691;-68
2022/11/15 05:58:18;;;;;;;29.93;18.80;;;;;;;;;;738012;191;689184;-68
2022/11/15 06:00:44;;;;;;;29.80;17.33;;;;;;;;;;732463;190;918464;-68
2022/11/15 06:03:10;;;;;;;28.13;17.03;;;;;;;;;;732843;189;918594;-69
2022/11/15 06:05:35;;;;;;;28.70;16.17;;;;;;;;;;733697;190;1019027;-68
2022/11/15 06:08:01;;;;;;;31.00;18.42;;;;;;;;;;736618;191;919270;-68
2022/11/15 06:10:27;;;;;;;27.77;17.57;;;;;;;;;;730532;189;920321;-68
2022/11/15 06:12:57;;;;;;;28.90;16.67;;;;;;;;;;730608;191;920180;-68
2022/11/15 06:15:22;;;;;;;25.67;15.87;;;;;;;;;;737158;190;949851;-67
2022/11/15 06:17:48;;;;;;;25.47;15.83;;;;;;;;;;739192;190;786544;-68
2022/11/15 06:20:14;;;;;;;27.50;17.43;;;;;;;;;;735523;189;918483;-67
2022/11/15 06:22:40;;;;;;;26.07;17.07;;;;;;;;;;731259;190;918357;-68
2022/11/15 06:25:06;;;;;;;34.60;19.63;;;;;;;;;;734353;189;919362;-68
2022/11/15 06:27:32;;;;;;;30.17;17.73;;;;;;;;;;729956;191;913278;-71
2022/11/15 06:29:58;;;;;;;35.10;19.03;;;;;;;;;;733834;190;908227;-68
2022/11/15 06:32:24;;;;;;;27.57;16.93;;;;;;;;;;739540;190;917232;-67
2022/11/15 06:34:50;;;;;;;29.00;18.07;;;;;;;;;;726062;190;920416;-67
2022/11/15 06:37:15;;;;;;;32.43;18.50;;;;;;;;;;735717;190;915531;-67
2022/11/15 06:39:41;;;;;;;29.73;18.35;;;;;;;;;;738765;190;1015585;-67
2022/11/15 06:42:08;;;;;;;35.53;19.23;;;;;;;;;;731417;190;1007100;-67
2022/11/15 06:44:34;;;;;;;29.33;18.87;;;;;;;;;;735515;187;913364;-67
2022/11/15 06:47:00;;;;;;;33.80;17.80;;;;;;;;;;738275;190;902056;-67
2022/11/15 06:49:25;;;;;;;28.80;16.20;;;;;;;;;;726453;191;1605213;-67
2022/11/15 06:51:51;;;;;;;33.70;18.90;;;;;;;;;;737538;189;810782;-67
2022/11/15 06:54:17;;;;;;;34.87;20.87;;;;;;;;;;737266;189;646300;-67
2022/11/15 06:56:43;;;;;;;31.60;18.43;;;;;;;;;;740482;190;759177;-68
2022/11/15 06:59:09;;;;;;;33.30;20.50;;;;;;;;;;731213;191;918806;-67
2022/11/15 07:01:35;;;;;;;32.37;19.90;;;;;;;;;;734227;190;918761;-68
2022/11/15 07:04:01;;;;;;;29.73;18.10;;;;;;;;;;734669;188;815791;-68
2022/11/15 07:06:26;;;;;;;75.85;36.28;;;;;;;;;;733197;190;919166;-69
2022/11/15 07:08:52;;;;;;;170.93;65.50;;;;;;;;;;730675;189;917429;-68
2022/11/15 07:11:18;;;;;;;130.87;56.53;;;;;;;;;;729322;191;919924;-67
2022/11/15 07:13:44;;;;;;;114.27;53.23;;;;;;;;;;720231;192;917495;-68
2022/11/15 07:16:10;;;;;;;109.10;54.00;;;;;;;;;;726608;191;922534;-70
2022/11/15 07:18:36;;;;;;;85.70;40.20;;;;;;;;;;741864;191;919899;-70
2022/11/15 07:21:04;;;;;;;87.50;42.27;;;;;;;;;;731585;190;819444;-70
2022/11/15 07:23:30;;;;;;;67.30;36.50;;;;;;;;;;736059;188;1016120;-69
2022/11/15 07:25:56;;;;;;;43.10;22.60;;;;;;;;;;737860;189;916749;-71
2022/11/15 07:28:22;;;;;;;54.73;28.50;;;;;;;;;;740983;187;814083;-71
2022/11/15 07:30:48;;;;;;;87.40;47.93;;;;;;;;;;733527;190;920607;-70
2022/11/15 07:33:14;;;;;;;69.57;39.37;;;;;;;;;;732019;188;917321;-72
2022/11/15 07:35:39;;;;;;;47.17;25.07;;;;;;;;;;740301;191;919037;-71
2022/11/15 07:38:05;;;;;;;62.00;31.60;;;;;;;;;;740606;189;918036;-70
2022/11/15 07:40:32;;;;;;;53.80;28.10;;;;;;;;;;737904;190;921829;-70
2022/11/15 07:43:01;;;;;;;52.93;28.23;;;;;;;;;;734244;191;944615;-71
2022/11/15 07:45:27;;;;;;;47.58;29.02;;;;;;;;;;738966;191;918326;-70
2022/11/15 07:47:53;;;;;;;47.27;29.13;;;;;;;;;;734307;190;923023;-71
2022/11/15 07:50:19;;;;;;;54.17;29.67;;;;;;;;;;733380;190;919461;-71
2022/11/15 07:52:45;;;;;;;48.80;26.70;;;;;;;;;;728016;194;920918;-71
2022/11/15 07:55:11;;;;;;;44.37;28.20;;;;;;;;;;730658;190;919329;-71
2022/11/15 07:57:36;;;;;;;55.55;28.38;;;;;;;;;;725320;190;914465;-71
2022/11/15 08:00:02;;;;;;;47.13;28.40;;;;;;;;;;738485;190;917718;-71
2022/11/15 08:02:28;;;;;;;46.70;28.80;;;;;;;;;;728331;190;924248;-71
2022/11/15 08:04:54;;;;;;;37.77;23.97;;;;;;;;;;734317;189;916000;-71
2022/11/15 08:07:20;;;;;;;37.87;23.97;;;;;;;;;;733853;190;920571;-71
2022/11/15 08:09:46;;;;;;;37.17;22.52;;;;;;;;;;737291;190;918144;-72
2022/11/15 08:12:12;;;;;;;39.13;21.87;;;;;;;;;;734978;190;812305;-71
2022/11/15 08:14:38;;;;;;;35.57;20.90;;;;;;;;;;733258;189;921276;-71
2022/11/15 08:17:03;;;;;;;35.37;19.00;;;;;;;;;;739513;190;806267;-71
2022/11/15 08:19:29;;;;;;;30.63;20.07;;;;;;;;;;729734;189;917765;-71
2022/11/15 08:21:55;;;;;;;28.50;18.47;;;;;;;;;;723631;192;917287;-71
2022/11/15 08:24:21;;;;;;;26.13;19.20;;;;;;;;;;723379;192;1020886;-71
2022/11/15 08:26:47;;;;;;;31.80;18.87;;;;;;;;;;730156;191;923122;-70
2022/11/15 08:29:12;;;;;;;27.93;19.10;;;;;;;;;;739742;188;917202;-70
2022/11/15 08:31:38;;;;;;;29.07;18.57;;;;;;;;;;736028;191;816649;-72
2022/11/15 08:34:04;;;;;;;27.35;17.27;;;;;;;;;;742145;187;922028;-71
2022/11/15 08:36:30;;;;;;;26.60;18.03;;;;;;;;;;734259;189;917841;-71
2022/11/15 08:38:56;;;;;;;29.43;18.20;;;;;;;;;;733787;190;916819;-71
2022/11/15 08:41:22;;;;;;;27.30;18.50;;;;;;;;;;742354;190;816796;-71
2022/11/15 08:43:48;;;;;;;28.43;18.57;;;;;;;;;;736134;188;815255;-72
2022/11/15 08:46:14;;;;;;;28.05;19.33;;;;;;;;;;735726;189;917954;-71
2022/11/15 08:48:39;;;;;;;34.80;20.27;;;;;;;;;;738280;190;917954;-72
2022/11/15 08:51:06;;;;;;;32.30;20.50;;;;;;;;;;737162;190;918609;-71
2022/11/15 08:53:31;;;;;;;32.63;20.20;;;;;;;;;;736770;189;844466;-71
2022/11/15 08:55:57;;;;;;;34.97;22.43;;;;;;;;;;738766;189;864129;-70
2022/11/15 08:58:23;;;;;;;30.73;19.73;;;;;;;;;;733924;191;819996;-70
2022/11/15 09:00:49;;;;;;;29.97;18.97;;;;;;;;;;728468;189;917682;-70
2022/11/15 09:03:15;;;;;;;28.40;20.40;;;;;;;;;;719100;191;920470;-71
2022/11/15 09:05:41;;;;;;;31.73;21.60;;;;;;;;;;725024;191;919943;-68
2022/11/15 09:08:07;;;;;;;35.80;21.83;;;;;;;;;;736854;188;922405;-69
2022/11/15 09:10:33;;;;;;;31.67;21.20;;;;;;;;;;731683;191;922015;-70
2022/11/15 09:12:58;;;;;;;33.63;21.80;;;;;;;;;;737803;190;918905;-69
2022/11/15 09:15:24;;;;;;;29.00;19.27;;;;;;;;;;733946;191;918550;-69
2022/11/15 09:17:50;;;;;;;29.77;20.27;;;;;;;;;;733186;189;921074;-69
2022/11/15 09:20:16;;;;;;;27.93;19.57;;;;;;;;;;739725;188;815626;-69
2022/11/15 09:22:42;;;;;;;24.80;18.53;;;;;;;;;;733239;189;919530;-69
2022/11/15 09:25:08;;;;;;;23.80;16.57;;;;;;;;;;732965;188;1021216;-68
2022/11/15 09:27:34;;;;;;;23.67;17.20;;;;;;;;;;733473;191;919217;-69
2022/11/15 09:30:00;;;;;;;31.10;19.20;;;;;;;;;;730643;191;909536;-67
2022/11/15 09:32:26;;;;;;;27.13;17.80;;;;;;;;;;726484;191;917786;-68
2022/11/15 09:34:52;;;;;;;25.90;16.80;;;;;;;;;;731089;191;919955;-68
2022/11/15 09:37:17;;;;;;;25.80;18.70;;;;;;;;;;736691;191;918943;-67
2022/11/15 09:39:43;;;;;;;29.30;17.90;;;;;;;;;;733164;191;816216;-67
2022/11/15 09:42:25;;;;;;;30.73;20.43;;;;;;;;;;728690;190;920155;-67
2022/11/15 09:44:55;;;;;;;29.67;20.20;;;;;;;;;;728247;188;917098;-69
2022/11/15 09:47:42;;;;;;;28.08;18.48;;;;;;;;;;728704;190;920486;-69
2022/11/15 09:50:08;;;;;;;27.80;18.77;;;;;;;;;;713995;192;919422;-71
2022/11/15 09:52:34;;;;;;;27.95;18.62;;;;;;;;;;729399;191;925619;-70
2022/11/15 09:55:00;;;;;;;33.00;20.53;;;;;;;;;;727623;189;918571;-71
2022/11/15 09:57:30;;;;;;;27.07;18.77;;;;;;;;;;735142;190;917291;-70
2022/11/15 10:00:11;;;;;;;36.20;20.30;;;;;;;;;;740539;188;921606;-70
2022/11/15 10:02:37;;;;;;;28.75;19.80;;;;;;;;;;740192;187;917367;-70
2022/11/15 10:05:03;;;;;;;31.27;18.97;;;;;;;;;;731612;188;920514;-70
2022/11/15 10:07:35;;;;;;;32.43;21.33;;;;;;;;;;732977;189;919302;-71
2022/11/15 10:10:05;;;;;;;27.20;19.90;;;;;;;;;;733007;189;919871;-70
2022/11/15 10:12:31;;;;;;;31.20;18.77;;;;;;;;;;736647;190;919018;-71
2022/11/15 10:14:57;;;;;;;30.75;21.70;;;;;;;;;;736549;188;921905;-71
2022/11/15 10:17:25;;;;;;;27.97;19.47;;;;;;;;;;728985;191;919048;-71
2022/11/15 10:19:59;;;;;;;32.47;22.10;;;;;;;;;;721246;191;816610;-71
2022/11/15 10:22:29;;;;;;;33.17;20.37;;;;;;;;;;731284;191;816028;-73
2022/11/15 10:25:12;;;;;;;34.30;21.57;;;;;;;;;;723568;190;918306;-71
2022/11/15 10:27:36;;;;;;;33.77;21.90;;;;;;;;;;729626;191;918666;-70
2022/11/15 10:30:02;;;;;;;31.63;19.77;;;;;;;;;;739356;191;816959;-71
2022/11/15 10:32:28;;;;;;;34.10;22.83;;;;;;;;;;734491;191;814568;-71
2022/11/15 10:34:54;;;;;;;31.47;21.50;;;;;;;;;;735022;191;816173;-71
2022/11/15 10:37:24;;;;;;;37.03;22.30;;;;;;;;;;728623;191;917952;-72
2022/11/15 10:39:56;;;;;;;31.70;20.50;;;;;;;;;;733929;188;817554;-71
2022/11/15 10:42:26;;;;;;;31.40;21.27;;;;;;;;;;732974;190;919384;-71
2022/11/15 10:44:52;;;;;;;38.30;22.77;;;;;;;;;;738490;191;918874;-70
2022/11/15 10:47:22;;;;;;;30.53;19.37;;;;;;;;;;737986;189;1024179;-71
2022/11/15 10:49:53;;;;;;;37.30;22.13;;;;;;;;;;736023;191;920324;-71
2022/11/15 10:52:20;;;;;;;35.00;20.67;;;;;;;;;;728656;191;920231;-71
2022/11/15 10:54:47;;;;;;;28.83;19.67;;;;;;;;;;731552;191;906537;-71
2022/11/15 10:57:14;;;;;;;25.03;17.60;;;;;;;;;;731295;190;915534;-70
2022/11/15 10:59:40;;;;;;;28.13;18.60;;;;;;;;;;728966;190;919118;-71
2022/11/15 11:02:12;;;;;;;30.60;20.97;;;;;;;;;;740174;190;917029;-71
2022/11/15 11:04:37;;;;;;;35.60;22.37;;;;;;;;;;739350;187;919485;-72
2022/11/15 11:07:03;;;;;;;39.57;23.77;;;;;;;;;;727987;191;919084;-71
2022/11/15 11:09:31;;;;;;;28.30;21.70;;;;;;;;;;718593;191;918545;-72
2022/11/15 11:11:57;;;;;;;33.40;19.97;;;;;;;;;;728319;191;916521;-71
2022/11/15 11:14:23;;;;;;;29.77;20.53;;;;;;;;;;736640;190;938899;-71
2022/11/15 11:16:52;;;;;;;30.37;18.37;;;;;;;;;;729169;190;914382;-72
2022/11/15 11:19:19;;;;;;;28.83;18.70;;;;;;;;;;742301;187;924012;-71
2022/11/15 11:22:03;;;;;;;27.60;18.90;;;;;;;;;;735727;191;929034;-71
2022/11/15 11:24:45;;;;;;;26.90;18.63;;;;;;;;;;735017;188;920849;-71
2022/11/15 11:27:18;;;;;;;29.87;18.80;;;;;;;;;;741946;188;851758;-71
2022/11/15 11:29:46;;;;;;;30.43;18.93;;;;;;;;;;735603;190;922079;-71
2022/11/15 11:32:26;;;;;;;33.37;20.23;;;;;;;;;;734991;190;919272;-71
2022/11/15 11:34:54;;;;;;;32.00;22.00;;;;;;;;;;732737;188;919425;-72
2022/11/15 11:37:35;;;;;;;32.57;19.03;;;;;;;;;;734650;190;917672;-72
2022/11/15 11:40:01;;;;;;;29.83;19.30;;;;;;;;;;732308;189;1023538;-72
2022/11/15 11:42:31;;;;;;;34.70;21.10;;;;;;;;;;729543;190;919061;-71
2022/11/15 11:44:57;;;;;;;30.57;19.13;;;;;;;;;;731396;191;889547;-71
2022/11/15 11:47:24;;;;;;;31.70;19.70;;;;;;;;;;731528;190;918867;-71
2022/11/15 11:49:52;;;;;;;26.00;18.33;;;;;;;;;;738706;188;926477;-71
2022/11/15 11:52:17;;;;;;;31.17;20.20;;;;;;;;;;730107;190;917660;-71
2022/11/15 11:54:43;;;;;;;30.33;19.57;;;;;;;;;;737722;188;919301;-71
2022/11/15 11:57:10;;;;;;;36.63;18.50;;;;;;;;;;737807;190;816626;-71
2022/11/15 11:59:36;;;;;;;31.93;19.73;;;;;;;;;;740555;190;713910;-70
2022/11/15 12:02:02;;;;;;;29.13;18.63;;;;;;;;;;733170;191;916360;-71
2022/11/15 12:04:30;;;;;;;29.63;17.90;;;;;;;;;;733788;188;919341;-71
2022/11/15 12:06:57;;;;;;;42.27;19.37;;;;;;;;;;737174;191;918905;-71
2022/11/15 12:09:32;;;;;;;29.67;18.03;;;;;;;;;;738520;187;918575;-71
2022/11/15 12:12:03;;;;;;;30.00;17.83;;;;;;;;;;728995;188;810867;-71
2022/11/15 12:14:39;;;;;;;31.63;18.73;;;;;;;;;;742897;187;628965;-71
2022/11/15 12:17:05;;;;;;;28.93;18.20;;;;;;;;;;735144;190;816845;-71
2022/11/15 12:19:31;;;;;;;25.10;17.70;;;;;;;;;;742846;187;816343;-71
2022/11/15 12:22:12;;;;;;;28.87;17.87;;;;;;;;;;734964;190;822436;-72
2022/11/15 12:24:38;;;;;;;28.40;18.40;;;;;;;;;;737115;188;628862;-71
2022/11/15 12:27:07;;;;;;;25.53;17.27;;;;;;;;;;734644;190;811379;-71
2022/11/15 12:29:34;;;;;;;26.43;16.60;;;;;;;;;;729165;192;810884;-71
2022/11/15 12:31:59;;;;;;;31.07;21.27;;;;;;;;;;731703;191;627390;-71
2022/11/15 12:34:30;;;;;;;34.63;19.93;;;;;;;;;;719472;189;813946;-71
2022/11/15 12:36:56;;;;;;;28.67;19.80;;;;;;;;;;727697;191;918968;-71
2022/11/15 12:39:22;;;;;;;32.50;17.90;;;;;;;;;;741515;188;918924;-72
2022/11/15 12:41:55;;;;;;;31.40;19.57;;;;;;;;;;728259;190;919642;-72
2022/11/15 12:44:27;;;;;;;29.63;17.20;;;;;;;;;;733870;190;917561;-71
2022/11/15 12:47:03;;;;;;;25.00;17.73;;;;;;;;;;730054;190;903368;-72
2022/11/15 12:49:43;;;;;;;28.27;18.00;;;;;;;;;;734818;191;919222;-71
2022/11/15 12:52:09;;;;;;;24.77;16.97;;;;;;;;;;740000;191;917782;-71
2022/11/15 12:54:51;;;;;;;25.63;17.83;;;;;;;;;;725393;192;815890;-72
2022/11/15 12:57:17;;;;;;;26.87;19.30;;;;;;;;;;735400;190;815591;-71
2022/11/15 12:59:54;;;;;;;34.97;19.27;;;;;;;;;;729201;192;918727;-71
2022/11/15 13:02:18;;;;;;;31.77;20.13;;;;;;;;;;728439;190;924993;-71
2022/11/15 13:04:44;;;;;;;24.43;17.67;;;;;;;;;;741823;191;816573;-71
2022/11/15 13:07:10;;;;;;;28.83;17.73;;;;;;;;;;739214;187;714025;-71
2022/11/15 13:09:51;;;;;;;30.03;19.37;;;;;;;;;;723261;192;919500;-71
2022/11/15 13:12:40;;;;;;;28.30;18.70;;;;;;;;;;733022;191;920082;-72
2022/11/15 13:15:26;;;;;;;29.47;17.57;;;;;;;;;;735010;191;816644;-72
2022/11/15 13:17:51;;;;;;;33.87;18.40;;;;;;;;;;734986;191;922005;-70
2022/11/15 13:20:17;;;;;;;25.20;17.07;;;;;;;;;;734040;190;917205;-71
2022/11/15 13:25:16;;;;;;;29.73;18.30;;;;;;;;;;733526;189;919445;-72
2022/11/15 13:27:41;;;;;;;31.20;17.53;;;;;;;;;;736758;190;918825;-73
2022/11/15 13:30:25;;;;;;;31.90;19.63;;;;;;;;;;737341;187;920206;-75
2022/11/15 13:32:51;;;;;;;34.87;19.17;;;;;;;;;;736027;191;908752;-71
2022/11/15 13:35:19;;;;;;;28.70;20.20;;;;;;;;;;728134;191;918671;-72
2022/11/15 13:37:44;;;;;;;27.73;19.00;;;;;;;;;;729894;190;786123;-71
2022/11/15 13:40:16;;;;;;;26.80;17.70;;;;;;;;;;737854;190;632004;-71
2022/11/15 13:42:42;;;;;;;25.00;18.80;;;;;;;;;;737486;189;920041;-72
2022/11/15 13:45:08;;;;;;;25.43;17.40;;;;;;;;;;741303;191;631110;-71
2022/11/15 13:47:34;;;;;;;27.87;17.17;;;;;;;;;;728295;190;908438;-71
2022/11/15 13:50:00;;;;;;;23.70;17.37;;;;;;;;;;742116;187;713080;-72
2022/11/15 13:52:27;;;;;;;32.07;19.00;;;;;;;;;;732653;191;623166;-72
2022/11/15 13:54:53;;;;;;;33.63;19.00;;;;;;;;;;734076;191;620395;-71
2022/11/15 13:57:19;;;;;;;29.90;19.00;;;;;;;;;;738031;191;620958;-72
2022/11/15 13:59:45;;;;;;;30.93;18.53;;;;;;;;;;739770;190;623736;-71
2022/11/15 14:02:11;;;;;;;27.67;18.37;;;;;;;;;;731575;191;919339;-72
2022/11/15 14:04:37;;;;;;;31.93;18.63;;;;;;;;;;731884;191;1018346;-71
2022/11/15 14:07:03;;;;;;;31.23;19.67;;;;;;;;;;737289;191;918900;-72
2022/11/15 14:09:29;;;;;;;31.23;22.10;;;;;;;;;;738687;188;1060218;-72
2022/11/15 14:11:55;;;;;;;33.43;19.47;;;;;;;;;;738179;190;920393;-70
2022/11/15 14:14:21;;;;;;;28.70;19.40;;;;;;;;;;723635;189;811995;-70